createdAt,value
2022-08-17T00:00:42.878Z,89.95
2022-08-17T00:03:10.367Z,89.70
2022-08-17T00:06:02.849Z,89.53
2022-08-17T00:08:35.597Z,90.21
2022-08-17T00:11:11.764Z,90.80
2022-08-17T00:13:47.067Z,90.64
2022-08-17T00:16:22.940Z,90.99
2022-08-17T00:19:14.348Z,91.58
2022-08-17T00:22:31.047Z,91.32
2022-08-17T00:24:34.786Z,91.87
2022-08-17T00:27:03.549Z,91.09
2022-08-17T00:29:31.641Z,91.33
2022-08-17T00:32:01.422Z,90.81
2022-08-17T00:34:49.612Z,90.16
2022-08-17T00:37:17.997Z,90.03
2022-08-17T00:39:46.143Z,89.67
2022-08-17T00:42:18.234Z,89.64
2022-08-17T00:44:46.830Z,91.09
2022-08-17T00:47:14.851Z,90.99
2022-08-17T00:49:43.109Z,90.64
2022-08-17T00:52:16.765Z,90.70
2022-08-17T00:54:49.299Z,90.99
2022-08-17T00:57:26.200Z,90.70
2022-08-17T01:00:02.406Z,90.75
2022-08-17T01:02:42.318Z,91.33
2022-08-17T01:05:18.567Z,91.63
2022-08-17T01:07:50.132Z,91.71
2022-08-17T01:10:59.360Z,91.60
2022-08-17T01:13:12.579Z,91.43
2022-08-17T01:15:52.509Z,91.65
2022-08-17T01:18:21.246Z,91.41
2022-08-17T01:20:52.954Z,91.19
2022-08-17T01:23:23.757Z,91.55
2022-08-17T01:25:55.663Z,91.03
2022-08-17T01:28:33.336Z,90.88
2022-08-17T01:31:15.401Z,90.59
2022-08-17T01:33:43.479Z,90.51
2022-08-17T01:36:11.637Z,91.01
2022-08-17T01:38:40.523Z,91.69
2022-08-17T01:41:12.689Z,91.48
2022-08-17T01:43:55.956Z,93.26
2022-08-17T01:46:29.347Z,92.89
2022-08-17T01:48:58.226Z,93.23
2022-08-17T01:51:32.859Z,93.37
2022-08-17T01:54:07.938Z,92.84
2022-08-17T01:56:41.165Z,92.23
2022-08-17T01:59:10.288Z,92.20
2022-08-17T02:01:39.250Z,92.23
2022-08-17T02:04:08.612Z,91.90
2022-08-17T02:06:45.042Z,91.91
2022-08-17T02:09:16.513Z,92.46
2022-08-17T02:11:46.273Z,92.29
2022-08-17T02:14:15.036Z,93.41
2022-08-17T02:16:43.200Z,93.59
2022-08-17T02:19:16.022Z,93.01
2022-08-17T02:21:46.628Z,92.66
2022-08-17T02:24:58.378Z,93.28
2022-08-17T02:27:08.993Z,93.18
2022-08-17T02:29:37.642Z,92.44
2022-08-17T02:32:05.969Z,92.17
2022-08-17T02:34:34.153Z,92.18
2022-08-17T02:37:02.182Z,92.07
2022-08-17T02:39:30.354Z,92.38
2022-08-17T02:42:03.480Z,92.46
2022-08-17T02:44:39.294Z,92.07
2022-08-17T02:47:10.071Z,92.30
2022-08-17T02:49:38.542Z,92.26
2022-08-17T02:52:08.008Z,92.09
2022-08-17T02:54:39.973Z,92.05
2022-08-17T02:57:11.019Z,92.10
2022-08-17T02:59:42.362Z,92.30
2022-08-17T03:02:14.988Z,92.38
2022-08-17T03:04:43.075Z,92.64
2022-08-17T03:07:11.874Z,92.54
2022-08-17T03:09:39.961Z,92.88
2022-08-17T03:12:12.399Z,93.10
2022-08-17T03:14:41.934Z,93.19
2022-08-17T03:17:12.816Z,93.61
2022-08-17T03:19:45.687Z,92.97
2022-08-17T03:22:35.914Z,92.70
2022-08-17T03:25:01.949Z,92.42
2022-08-17T03:27:30.313Z,92.50
2022-08-17T03:29:58.349Z,93.49
2022-08-17T03:32:26.444Z,93.27
2022-08-17T03:34:59.557Z,92.80
2022-08-17T03:37:27.685Z,92.67
2022-08-17T03:39:56.014Z,93.06
2022-08-17T03:42:31.884Z,93.16
2022-08-17T03:45:03.054Z,93.06
2022-08-17T03:47:49.814Z,93.42
2022-08-17T03:50:37.879Z,93.82
2022-08-17T03:53:32.054Z,93.91
2022-08-17T03:56:20.165Z,93.93
2022-08-17T03:58:48.745Z,94.23
2022-08-17T04:01:18.124Z,93.64
2022-08-17T04:03:46.202Z,93.73
2022-08-17T04:06:14.506Z,93.95
2022-08-17T04:08:42.529Z,93.74
2022-08-17T04:11:10.568Z,93.35
2022-08-17T04:13:38.669Z,92.88
2022-08-17T04:16:06.795Z,92.95
2022-08-17T04:18:35.014Z,92.84
2022-08-17T04:21:03.111Z,92.95
2022-08-17T04:23:34.075Z,93.04
2022-08-17T04:26:02.858Z,93.23
2022-08-17T04:28:31.114Z,93.15
2022-08-17T04:30:59.519Z,93.00
2022-08-17T04:33:30.272Z,92.92
2022-08-17T04:36:01.655Z,92.54
2022-08-17T04:38:33.082Z,92.62
2022-08-17T04:41:20.304Z,92.52
2022-08-17T04:43:49.947Z,92.16
2022-08-17T04:46:20.427Z,91.77
2022-08-17T04:48:54.030Z,91.38
2022-08-17T04:51:51.024Z,91.07
2022-08-17T04:54:24.062Z,90.34
2022-08-17T04:56:52.390Z,89.52
2022-08-17T04:59:22.707Z,89.41
2022-08-17T05:01:51.966Z,88.85
2022-08-17T05:04:34.389Z,88.77
2022-08-17T05:07:04.817Z,88.56
2022-08-17T05:09:32.867Z,88.45
2022-08-17T05:12:02.567Z,88.49
2022-08-17T05:14:32.753Z,88.46
2022-08-17T05:17:07.018Z,88.15
2022-08-17T05:19:36.195Z,88.39
2022-08-17T05:22:06.414Z,88.34
2022-08-17T05:24:40.691Z,88.31
2022-08-17T05:27:14.352Z,88.32
2022-08-17T05:29:47.336Z,88.00
2022-08-17T05:32:37.772Z,88.13
2022-08-17T05:35:05.579Z,87.86
2022-08-17T05:37:33.654Z,87.69
2022-08-17T05:40:01.861Z,87.45
2022-08-17T05:42:30.034Z,87.39
2022-08-17T05:44:59.039Z,87.30
2022-08-17T05:47:28.449Z,87.52
2022-08-17T05:49:57.513Z,87.21
2022-08-17T05:52:32.609Z,87.24
2022-08-17T05:55:22.431Z,87.37
2022-08-17T05:58:00.226Z,87.14
2022-08-17T06:00:35.959Z,86.75
2022-08-17T06:03:04.827Z,86.70
2022-08-17T06:05:55.057Z,86.44
2022-08-17T06:08:44.162Z,86.25
2022-08-17T06:11:19.819Z,85.54
2022-08-17T06:14:01.242Z,85.12
2022-08-17T06:16:39.576Z,85.08
2022-08-17T06:19:26.000Z,85.67
2022-08-17T06:21:55.179Z,84.72
2022-08-17T06:24:43.034Z,84.21
2022-08-17T06:27:21.790Z,82.17
2022-08-17T06:29:56.938Z,80.66
2022-08-17T06:32:25.587Z,79.67
2022-08-17T06:34:53.938Z,75.45
2022-08-17T06:37:32.532Z,73.41
2022-08-17T06:40:22.159Z,74.61
2022-08-17T06:43:05.460Z,73.31
2022-08-17T06:45:41.955Z,72.14
2022-08-17T06:48:24.921Z,70.38
2022-08-17T06:51:02.866Z,69.19
2022-08-17T06:53:42.460Z,66.11
2022-08-17T06:56:13.874Z,67.39
2022-08-17T06:58:45.051Z,66.66
2022-08-17T07:01:20.981Z,63.26
2022-08-17T07:03:58.694Z,63.72
2022-08-17T07:07:01.556Z,63.40
2022-08-17T07:09:38.058Z,61.16
2022-08-17T07:12:17.921Z,60.68
2022-08-17T07:14:53.661Z,62.23
2022-08-17T07:17:46.479Z,61.56
2022-08-17T07:20:16.041Z,61.59
2022-08-17T07:23:00.163Z,61.71
2022-08-17T07:25:30.774Z,60.51
2022-08-17T07:28:02.561Z,60.20
2022-08-17T07:31:00.670Z,59.52
2022-08-17T07:33:31.386Z,60.39
2022-08-17T07:36:01.064Z,59.48
2022-08-17T07:38:35.683Z,58.96
2022-08-17T07:41:10.838Z,58.66
2022-08-17T07:43:41.907Z,57.91
2022-08-17T07:46:41.009Z,58.00
2022-08-17T07:49:09.005Z,56.38
2022-08-17T07:52:47.824Z,55.98
2022-08-17T07:54:50.044Z,55.06
2022-08-17T07:57:25.396Z,53.83
2022-08-17T08:00:00.087Z,51.71
2022-08-17T08:02:38.840Z,50.54
2022-08-17T08:05:25.081Z,50.69
2022-08-17T08:08:42.449Z,49.70
2022-08-17T08:11:15.533Z,49.11
2022-08-17T08:13:45.772Z,47.60
2022-08-17T08:16:16.908Z,45.73
2022-08-17T08:18:55.651Z,44.74
2022-08-17T08:21:31.595Z,44.84
2022-08-17T08:24:09.942Z,43.74
2022-08-17T08:26:48.277Z,43.67
2022-08-17T08:29:30.010Z,44.45
2022-08-17T08:32:20.719Z,43.24
2022-08-17T08:35:07.829Z,43.04
2022-08-17T08:38:31.011Z,44.25
2022-08-17T08:41:23.368Z,43.50
2022-08-17T08:44:09.793Z,43.42
2022-08-17T08:46:50.467Z,43.06
2022-08-17T08:50:07.193Z,43.10
2022-08-17T08:53:08.916Z,42.98
2022-08-17T08:55:37.333Z,43.09
2022-08-17T08:58:31.665Z,42.75
2022-08-17T09:01:17.468Z,42.81
2022-08-17T09:04:23.267Z,42.25
2022-08-17T09:07:01.542Z,42.41
2022-08-17T09:09:59.372Z,41.88
2022-08-17T09:12:41.882Z,41.72
2022-08-17T09:15:18.527Z,41.39
2022-08-17T09:18:14.666Z,41.16
2022-08-17T09:21:07.709Z,41.63
2022-08-17T09:23:46.614Z,41.00
2022-08-17T09:26:23.109Z,40.93
2022-08-17T09:29:01.517Z,40.88
2022-08-17T09:31:49.194Z,40.58
2022-08-17T09:34:31.960Z,40.63
2022-08-17T09:37:16.139Z,40.70
2022-08-17T09:40:13.270Z,40.69
2022-08-17T09:42:52.568Z,39.23
2022-08-17T09:45:41.087Z,38.06
2022-08-17T09:48:18.410Z,37.67
2022-08-17T09:51:05.139Z,37.69
2022-08-17T09:53:39.491Z,36.80
2022-08-17T09:56:35.561Z,36.91
2022-08-17T09:59:17.268Z,37.22
2022-08-17T10:02:05.467Z,37.65
2022-08-17T10:04:55.237Z,37.75
2022-08-17T10:07:52.429Z,37.77
2022-08-17T10:10:58.926Z,37.71
2022-08-17T10:14:00.100Z,37.44
2022-08-17T10:16:47.012Z,37.19
2022-08-17T10:19:32.368Z,37.34
2022-08-17T10:22:35.330Z,37.34
2022-08-17T10:25:42.555Z,37.72
2022-08-17T10:28:25.824Z,36.63
2022-08-17T10:31:30.778Z,36.56
2022-08-17T10:34:27.265Z,36.74
2022-08-17T10:37:14.548Z,35.90
2022-08-17T10:40:07.476Z,35.69
2022-08-17T10:42:49.074Z,35.56
2022-08-17T10:45:26.504Z,34.85
2022-08-17T10:48:06.633Z,34.32
2022-08-17T10:51:00.048Z,33.34
2022-08-17T10:53:40.858Z,33.17
2022-08-17T10:56:14.623Z,32.52
2022-08-17T10:58:47.300Z,31.65
2022-08-17T11:01:17.359Z,31.23
2022-08-17T11:03:57.182Z,30.90
2022-08-17T11:06:37.349Z,31.11
2022-08-17T11:09:29.818Z,30.91
2022-08-17T11:12:19.852Z,31.21
2022-08-17T11:14:47.765Z,31.18
2022-08-17T11:17:45.819Z,30.93
2022-08-17T11:20:38.130Z,30.67
2022-08-17T11:23:52.672Z,30.65
2022-08-17T11:26:33.447Z,30.36
2022-08-17T11:29:10.936Z,30.53
2022-08-17T11:31:42.693Z,30.69
2022-08-17T11:34:21.586Z,30.42
2022-08-17T11:37:18.403Z,30.58
2022-08-17T11:40:10.959Z,30.19
2022-08-17T11:43:17.481Z,30.72
2022-08-17T11:45:57.735Z,31.07
2022-08-17T11:49:16.717Z,30.50
2022-08-17T11:51:58.565Z,30.49
2022-08-17T11:54:42.898Z,30.04
2022-08-17T11:57:25.660Z,30.28
2022-08-17T11:59:58.703Z,30.04
2022-08-17T12:02:29.843Z,30.02
2022-08-17T12:05:12.011Z,30.25
2022-08-17T12:08:06.382Z,30.50
2022-08-17T12:10:40.394Z,29.86
2022-08-17T12:13:15.726Z,30.20
2022-08-17T12:15:50.658Z,30.47
2022-08-17T12:18:32.451Z,30.06
2022-08-17T12:21:17.689Z,29.99
2022-08-17T12:24:06.628Z,29.98
2022-08-17T12:26:36.898Z,29.23
2022-08-17T12:29:18.198Z,28.77
2022-08-17T12:32:02.253Z,29.20
2022-08-17T12:34:42.125Z,28.97
2022-08-17T12:37:22.955Z,28.81
2022-08-17T12:40:05.672Z,28.49
2022-08-17T12:42:41.479Z,28.54
2022-08-17T12:45:25.753Z,28.27
2022-08-17T12:48:06.636Z,28.72
2022-08-17T12:50:37.283Z,28.55
2022-08-17T12:53:23.554Z,28.10
2022-08-17T12:55:52.174Z,27.67
2022-08-17T12:58:25.320Z,27.37
2022-08-17T13:01:05.590Z,27.54
2022-08-17T13:03:41.254Z,27.93
2022-08-17T13:06:14.354Z,27.70
2022-08-17T13:08:47.653Z,27.54
2022-08-17T13:11:16.649Z,27.94
2022-08-17T13:13:55.143Z,28.23
2022-08-17T13:16:30.917Z,28.35
2022-08-17T13:19:07.098Z,28.35
2022-08-17T13:21:38.118Z,29.03
2022-08-17T13:24:11.869Z,28.77
2022-08-17T13:26:42.946Z,26.83
2022-08-17T13:29:28.448Z,27.31
2022-08-17T13:32:23.277Z,27.92
2022-08-17T13:35:15.536Z,28.69
2022-08-17T13:38:10.202Z,28.12
2022-08-17T13:40:45.275Z,27.80
2022-08-17T13:43:50.576Z,28.09
2022-08-17T13:46:25.176Z,28.53
2022-08-17T13:49:02.108Z,28.65
2022-08-17T13:51:34.345Z,29.20
2022-08-17T13:54:05.728Z,29.20
2022-08-17T13:56:45.519Z,29.08
2022-08-17T13:59:36.297Z,28.84
2022-08-17T14:02:19.040Z,28.58
2022-08-17T14:04:48.739Z,29.12
2022-08-17T14:07:18.390Z,29.99
2022-08-17T14:09:48.379Z,30.75
2022-08-17T14:12:20.403Z,32.21
2022-08-17T14:14:49.730Z,32.97
2022-08-17T14:17:19.097Z,33.22
2022-08-17T14:19:48.298Z,33.06
2022-08-17T14:22:27.889Z,33.24
2022-08-17T14:24:59.199Z,33.43
2022-08-17T14:27:33.739Z,33.79
2022-08-17T14:30:11.890Z,33.80
2022-08-17T14:32:43.764Z,34.13
2022-08-17T14:35:14.699Z,37.03
2022-08-17T14:37:45.777Z,39.10
2022-08-17T14:40:16.321Z,39.33
2022-08-17T14:42:45.918Z,40.00
2022-08-17T14:45:32.101Z,40.53
2022-08-17T14:48:04.552Z,40.90
2022-08-17T14:50:35.492Z,41.16
2022-08-17T14:53:06.119Z,41.03
2022-08-17T14:55:34.878Z,40.72
2022-08-17T14:58:04.264Z,40.98
2022-08-17T15:00:33.401Z,40.57
2022-08-17T15:03:02.443Z,40.46
2022-08-17T15:05:36.789Z,40.34
2022-08-17T15:08:05.772Z,40.10
2022-08-17T15:10:34.235Z,40.19
2022-08-17T15:13:02.851Z,40.23
2022-08-17T15:15:31.507Z,40.19
2022-08-17T15:18:00.036Z,40.19
2022-08-17T15:20:52.756Z,39.98
2022-08-17T15:23:23.211Z,39.39
2022-08-17T15:25:54.042Z,38.99
2022-08-17T15:28:25.225Z,39.17
2022-08-17T15:30:53.910Z,39.08
2022-08-17T15:33:29.219Z,39.00
2022-08-17T15:35:59.806Z,39.39
2022-08-17T15:38:30.625Z,39.23
2022-08-17T15:40:58.646Z,39.10
2022-08-17T15:43:32.675Z,39.50
2022-08-17T15:46:04.747Z,45.46
2022-08-17T15:48:41.835Z,48.97
2022-08-17T15:51:10.085Z,54.01
2022-08-17T15:53:39.583Z,56.95
2022-08-17T15:56:08.365Z,59.19
2022-08-17T15:58:38.140Z,61.33
2022-08-17T16:01:16.975Z,61.38
2022-08-17T16:04:04.559Z,63.10
2022-08-17T16:06:35.379Z,65.36
2022-08-17T16:09:06.863Z,66.84
2022-08-17T16:11:34.877Z,68.64
2022-08-17T16:14:02.882Z,70.09
2022-08-17T16:16:31.348Z,70.43
2022-08-17T16:18:59.525Z,70.98
2022-08-17T16:21:29.634Z,70.81
2022-08-17T16:24:17.140Z,71.28
2022-08-17T16:26:50.440Z,71.31
2022-08-17T16:29:18.549Z,71.42
2022-08-17T16:31:46.476Z,71.03
2022-08-17T16:34:16.913Z,71.66
2022-08-17T16:36:54.595Z,71.73
2022-08-17T16:39:27.224Z,72.24
2022-08-17T16:41:56.976Z,72.05
2022-08-17T16:44:29.070Z,71.85
2022-08-17T16:46:57.859Z,72.32
2022-08-17T16:49:35.897Z,73.23
2022-08-17T16:52:10.316Z,72.64
2022-08-17T16:54:43.966Z,72.57
2022-08-17T16:57:14.741Z,72.87
2022-08-17T16:59:47.764Z,73.67
2022-08-17T17:02:32.250Z,74.93
2022-08-17T17:05:26.131Z,74.82
2022-08-17T17:08:03.505Z,74.75
2022-08-17T17:10:38.885Z,74.95
2022-08-17T17:13:17.248Z,75.28
2022-08-17T17:15:58.685Z,75.49
2022-08-17T17:18:39.369Z,75.18
2022-08-17T17:21:17.353Z,75.31
2022-08-17T17:23:55.116Z,75.43
2022-08-17T17:26:31.982Z,75.30
2022-08-17T17:29:28.582Z,75.87
2022-08-17T17:32:38.151Z,76.18
2022-08-17T17:35:14.744Z,76.35
2022-08-17T17:37:45.003Z,77.03
2022-08-17T17:40:23.241Z,77.30
2022-08-17T17:43:14.291Z,78.20
2022-08-17T17:45:58.934Z,78.33
2022-08-17T17:48:48.124Z,79.33
2022-08-17T17:52:08.809Z,80.13
2022-08-17T17:54:49.620Z,79.64
2022-08-17T17:57:40.256Z,80.03
2022-08-17T18:00:11.273Z,80.70
2022-08-17T18:03:05.190Z,80.91
2022-08-17T18:05:34.427Z,81.08
2022-08-17T18:08:40.352Z,81.04
2022-08-17T18:11:38.020Z,81.54
2022-08-17T18:14:20.072Z,81.61
2022-08-17T18:16:56.194Z,82.19
2022-08-17T18:19:27.084Z,82.20
2022-08-17T18:22:14.198Z,82.28
2022-08-17T18:24:48.023Z,82.33
2022-08-17T18:27:31.564Z,83.07
2022-08-17T18:30:21.319Z,83.20
2022-08-17T18:32:50.892Z,83.11
2022-08-17T18:35:21.009Z,83.54
2022-08-17T18:37:56.584Z,83.41
2022-08-17T18:40:32.757Z,83.53
2022-08-17T18:43:03.652Z,83.86
2022-08-17T18:45:38.551Z,84.38
2022-08-17T18:48:25.381Z,84.50
2022-08-17T18:50:57.752Z,84.28
2022-08-17T18:53:33.977Z,84.13
2022-08-17T18:56:37.031Z,84.55
2022-08-17T18:59:17.279Z,84.67
2022-08-17T19:02:08.945Z,85.14
2022-08-17T19:04:57.066Z,84.92
2022-08-17T19:07:34.332Z,85.26
2022-08-17T19:10:10.151Z,85.89
2022-08-17T19:12:52.577Z,86.39
2022-08-17T19:15:29.581Z,86.66
2022-08-17T19:18:04.048Z,86.76
2022-08-17T19:20:43.133Z,86.13
2022-08-17T19:23:25.391Z,86.28
2022-08-17T19:25:58.591Z,86.16
2022-08-17T19:28:43.045Z,86.11
2022-08-17T19:31:22.570Z,86.24
2022-08-17T19:33:51.926Z,86.72
2022-08-17T19:36:21.695Z,86.96
2022-08-17T19:39:05.219Z,87.20
2022-08-17T19:41:43.205Z,87.28
2022-08-17T19:44:35.010Z,87.35
2022-08-17T19:47:50.950Z,86.80
2022-08-17T19:50:14.302Z,87.11
2022-08-17T19:53:01.224Z,86.87
2022-08-17T19:55:32.776Z,86.87
2022-08-17T19:58:10.988Z,86.94
2022-08-17T20:00:52.252Z,86.74
2022-08-17T20:03:35.785Z,86.99
2022-08-17T20:06:14.680Z,87.70
2022-08-17T20:09:19.878Z,88.32
2022-08-17T20:11:55.467Z,88.67
2022-08-17T20:14:53.693Z,88.92
2022-08-17T20:17:37.285Z,88.93
2022-08-17T20:20:42.990Z,88.60
2022-08-17T20:23:32.433Z,88.51
2022-08-17T20:26:23.464Z,88.52
2022-08-17T20:29:09.971Z,88.98
2022-08-17T20:31:45.122Z,89.40
2022-08-17T20:34:33.684Z,89.64
2022-08-17T20:37:15.001Z,89.67
2022-08-17T20:40:05.703Z,89.41
2022-08-17T20:42:34.214Z,89.70
2022-08-17T20:45:20.837Z,89.69
2022-08-17T20:48:18.678Z,90.19
2022-08-17T20:50:50.790Z,90.42
2022-08-17T20:53:48.361Z,90.55
2022-08-17T20:56:57.451Z,90.45
2022-08-17T20:59:26.538Z,90.48
2022-08-17T21:02:17.522Z,90.31
2022-08-17T21:04:49.940Z,90.15
2022-08-17T21:07:33.017Z,90.09
2022-08-17T21:10:22.872Z,90.20
2022-08-17T21:12:55.476Z,90.59
2022-08-17T21:15:42.213Z,90.60
2022-08-17T21:18:39.070Z,90.36
2022-08-17T21:21:36.959Z,89.91
2022-08-17T21:24:43.624Z,90.36
2022-08-17T21:27:26.402Z,90.42
2022-08-17T21:30:10.081Z,90.41
2022-08-17T21:32:41.873Z,90.20
2022-08-17T21:35:27.265Z,90.18
2022-08-17T21:38:04.526Z,90.50
2022-08-17T21:40:34.359Z,90.63
2022-08-17T21:43:24.641Z,90.49
2022-08-17T21:46:03.805Z,91.05
2022-08-17T21:48:42.338Z,91.23
2022-08-17T21:51:23.419Z,90.98
2022-08-17T21:53:58.060Z,91.04
2022-08-17T21:56:36.316Z,91.14
2022-08-17T21:59:44.278Z,90.85
2022-08-17T22:02:21.855Z,91.10
2022-08-17T22:05:03.070Z,91.45
2022-08-17T22:07:45.934Z,91.47
2022-08-17T22:10:31.258Z,91.88
2022-08-17T22:13:24.221Z,92.01
2022-08-17T22:16:28.293Z,91.97
2022-08-17T22:19:00.894Z,92.02
2022-08-17T22:21:28.913Z,92.03
2022-08-17T22:24:04.740Z,91.94
2022-08-17T22:26:59.541Z,91.90
2022-08-17T22:29:53.257Z,91.73
2022-08-17T22:32:44.709Z,91.85
2022-08-17T22:35:17.825Z,91.83
2022-08-17T22:37:46.198Z,91.67
2022-08-17T22:40:26.134Z,91.87
2022-08-17T22:42:57.321Z,92.12
2022-08-17T22:45:29.036Z,91.91
2022-08-17T22:48:00.091Z,92.30
2022-08-17T22:50:31.653Z,92.51
2022-08-17T22:53:34.193Z,92.86
2022-08-17T22:56:21.373Z,93.25
2022-08-17T22:59:14.523Z,92.84
2022-08-17T23:01:45.626Z,92.82
2022-08-17T23:04:32.910Z,92.99
2022-08-17T23:07:00.913Z,92.79
2022-08-17T23:09:29.941Z,92.52
2022-08-17T23:11:59.058Z,92.89
2022-08-17T23:14:31.635Z,92.54
2022-08-17T23:17:01.187Z,92.88
2022-08-17T23:19:31.845Z,92.64
2022-08-17T23:22:04.428Z,92.36
2022-08-17T23:24:37.895Z,92.63
2022-08-17T23:27:07.719Z,92.60
2022-08-17T23:29:39.446Z,92.55
2022-08-17T23:32:09.903Z,92.76
2022-08-17T23:34:39.962Z,92.65
2022-08-17T23:37:10.397Z,92.59
2022-08-17T23:39:39.735Z,92.83
2022-08-17T23:42:11.006Z,93.09
2022-08-17T23:44:41.875Z,92.99
2022-08-17T23:47:11.302Z,92.74
2022-08-17T23:49:40.506Z,92.59
2022-08-17T23:52:12.685Z,92.78
2022-08-17T23:54:47.473Z,92.75
2022-08-17T23:57:18.874Z,92.94
2022-08-17T23:59:47.052Z,93.19
